createdAt,value
2023-05-01T00:01:20.496Z,11.48
2023-05-01T00:03:48.429Z,11.48
2023-05-01T00:06:16.125Z,11.47
2023-05-01T00:08:43.853Z,11.47
2023-05-01T00:11:12.574Z,11.45
2023-05-01T00:13:40.388Z,11.45
2023-05-01T00:16:12.730Z,11.44
2023-05-01T00:18:40.395Z,11.42
2023-05-01T00:21:07.903Z,11.42
2023-05-01T00:23:36.170Z,11.41
2023-05-01T00:26:03.899Z,11.40
2023-05-01T00:28:31.570Z,11.42
2023-05-01T00:30:59.435Z,11.43
2023-05-01T00:33:26.999Z,11.44
2023-05-01T00:35:55.953Z,11.46
2023-05-01T00:38:24.308Z,11.46
2023-05-01T00:40:51.996Z,11.46
2023-05-01T00:43:19.550Z,11.47
2023-05-01T00:45:47.510Z,11.46
2023-05-01T00:48:15.920Z,11.47
2023-05-01T00:50:45.542Z,11.47
2023-05-01T00:53:13.276Z,11.46
2023-05-01T00:55:43.299Z,11.47
2023-05-01T00:58:14.455Z,11.46
2023-05-01T01:00:42.211Z,11.43
2023-05-01T01:03:10.456Z,11.42
2023-05-01T01:05:51.444Z,11.43
2023-05-01T01:09:08.225Z,11.40
2023-05-01T01:12:25.198Z,11.38
2023-05-01T01:15:10.251Z,11.37
2023-05-01T01:18:07.536Z,11.34
2023-05-01T01:20:47.127Z,11.32
2023-05-01T01:23:53.179Z,11.31
2023-05-01T01:26:52.352Z,11.28
2023-05-01T01:30:26.520Z,11.27
2023-05-01T01:33:13.170Z,11.24
2023-05-01T01:35:53.692Z,11.23
2023-05-01T01:38:40.464Z,11.21
2023-05-01T01:41:18.132Z,11.19
2023-05-01T01:44:02.025Z,11.20
2023-05-01T01:46:37.030Z,11.20
2023-05-01T01:49:13.422Z,11.20
2023-05-01T01:51:42.932Z,11.19
2023-05-01T01:54:15.314Z,11.18
2023-05-01T01:56:46.157Z,11.19
2023-05-01T01:59:16.659Z,11.18
2023-05-01T02:01:47.337Z,11.20
2023-05-01T02:04:17.187Z,11.19
2023-05-01T02:06:47.042Z,11.19
2023-05-01T02:09:19.511Z,11.19
2023-05-01T02:11:49.642Z,11.18
2023-05-01T02:14:19.169Z,11.17
2023-05-01T02:16:48.903Z,11.18
2023-05-01T02:19:18.978Z,11.18
2023-05-01T02:21:49.940Z,11.17
2023-05-01T02:24:22.569Z,11.17
2023-05-01T02:26:59.673Z,11.14
2023-05-01T02:29:28.466Z,11.10
2023-05-01T02:31:56.352Z,11.07
2023-05-01T02:34:24.457Z,11.03
2023-05-01T02:36:52.047Z,11.00
2023-05-01T02:39:20.199Z,10.98
2023-05-01T02:41:49.778Z,10.95
2023-05-01T02:44:20.622Z,10.93
2023-05-01T02:46:53.348Z,10.91
2023-05-01T02:49:21.867Z,10.84
2023-05-01T02:51:50.879Z,10.82
2023-05-01T02:54:20.930Z,10.84
2023-05-01T02:56:48.617Z,10.85
2023-05-01T02:59:16.500Z,10.86
2023-05-01T03:01:44.299Z,10.85
2023-05-01T03:04:12.721Z,10.82
2023-05-01T03:06:40.805Z,10.80
2023-05-01T03:09:08.496Z,10.79
2023-05-01T03:11:37.696Z,10.78
2023-05-01T03:14:06.038Z,10.79
2023-05-01T03:16:33.848Z,10.80
2023-05-01T03:19:02.195Z,10.79
2023-05-01T03:21:29.738Z,10.78
2023-05-01T03:23:57.658Z,10.77
2023-05-01T03:26:25.730Z,10.74
2023-05-01T03:28:53.442Z,10.72
2023-05-01T03:31:22.631Z,10.69
2023-05-01T03:33:50.539Z,10.64
2023-05-01T03:36:18.274Z,10.60
2023-05-01T03:38:48.496Z,10.53
2023-05-01T03:41:34.527Z,10.46
2023-05-01T03:44:15.487Z,10.42
2023-05-01T03:46:45.159Z,10.38
2023-05-01T03:49:19.257Z,10.33
2023-05-01T03:51:49.275Z,10.30
2023-05-01T03:54:17.080Z,10.30
2023-05-01T03:56:58.686Z,10.29
2023-05-01T03:59:27.086Z,10.30
2023-05-01T04:01:54.780Z,10.31
2023-05-01T04:04:22.784Z,10.34
2023-05-01T04:06:58.835Z,10.33
2023-05-01T04:09:26.577Z,10.34
2023-05-01T04:11:54.394Z,10.32
2023-05-01T04:14:22.121Z,10.30
2023-05-01T04:16:51.194Z,10.32
2023-05-01T04:19:19.494Z,10.30
2023-05-01T04:21:48.717Z,10.27
2023-05-01T04:24:16.724Z,10.27
2023-05-01T04:26:44.515Z,10.28
2023-05-01T04:29:12.272Z,10.27
2023-05-01T04:31:41.732Z,10.26
2023-05-01T04:34:09.610Z,10.26
2023-05-01T04:36:38.587Z,10.26
2023-05-01T04:39:06.617Z,10.27
2023-05-01T04:41:34.569Z,10.28
2023-05-01T04:44:03.394Z,10.30
2023-05-01T04:46:31.086Z,10.33
2023-05-01T04:48:58.752Z,10.34
2023-05-01T04:51:28.038Z,10.36
2023-05-01T04:53:55.880Z,10.40
2023-05-01T04:56:27.412Z,10.43
2023-05-01T04:59:00.749Z,10.44
2023-05-01T05:01:30.624Z,10.46
2023-05-01T05:03:59.895Z,10.49
2023-05-01T05:06:28.498Z,10.50
2023-05-01T05:08:57.767Z,10.50
2023-05-01T05:11:26.473Z,10.52
2023-05-01T05:14:04.029Z,10.53
2023-05-01T05:16:34.910Z,10.55
2023-05-01T05:19:03.169Z,10.54
2023-05-01T05:21:36.684Z,10.55
2023-05-01T05:24:05.200Z,10.59
2023-05-01T05:26:33.673Z,10.59
2023-05-01T05:29:04.352Z,10.58
2023-05-01T05:31:32.114Z,10.59
2023-05-01T05:34:00.108Z,10.63
2023-05-01T05:36:28.722Z,10.68
2023-05-01T05:38:56.665Z,10.72
2023-05-01T05:41:24.651Z,10.76
2023-05-01T05:43:57.383Z,10.82
2023-05-01T05:46:25.512Z,10.86
2023-05-01T05:48:57.102Z,10.92
2023-05-01T05:51:28.556Z,10.94
2023-05-01T05:53:57.551Z,11.00
2023-05-01T05:56:25.370Z,11.05
2023-05-01T05:58:53.185Z,11.11
2023-05-01T06:01:21.640Z,11.16
2023-05-01T06:03:49.378Z,11.20
2023-05-01T06:06:17.488Z,11.25
2023-05-01T06:08:46.341Z,11.27
2023-05-01T06:11:14.359Z,11.32
2023-05-01T06:13:42.271Z,11.38
2023-05-01T06:16:10.148Z,11.41
2023-05-01T06:18:38.007Z,11.46
2023-05-01T06:21:06.626Z,11.51
2023-05-01T06:23:34.832Z,11.53
2023-05-01T06:26:24.665Z,11.58
2023-05-01T06:28:52.473Z,11.67
2023-05-01T06:31:20.802Z,11.74
2023-05-01T06:33:53.174Z,11.82
2023-05-01T06:36:28.026Z,11.87
2023-05-01T06:38:55.751Z,11.93
2023-05-01T06:41:25.531Z,12.03
2023-05-01T06:43:53.276Z,12.17
2023-05-01T06:46:20.935Z,12.29
2023-05-01T06:48:48.927Z,12.36
2023-05-01T06:51:16.655Z,12.41
2023-05-01T06:53:44.346Z,12.47
2023-05-01T06:56:12.210Z,12.56
2023-05-01T06:58:39.879Z,12.65
2023-05-01T07:01:07.636Z,12.74
2023-05-01T07:03:35.414Z,12.84
2023-05-01T07:06:03.216Z,12.90
2023-05-01T07:08:31.614Z,12.97
2023-05-01T07:10:59.284Z,13.02
2023-05-01T07:13:27.163Z,13.09
2023-05-01T07:15:55.219Z,13.21
2023-05-01T07:18:23.059Z,13.32
2023-05-01T07:20:50.972Z,13.36
2023-05-01T07:23:18.727Z,13.41
2023-05-01T07:25:46.419Z,13.50
2023-05-01T07:28:14.064Z,13.57
2023-05-01T07:30:42.006Z,13.58
2023-05-01T07:33:09.639Z,13.59
2023-05-01T07:35:37.454Z,13.59
2023-05-01T07:38:05.195Z,13.62
2023-05-01T07:40:34.497Z,13.65
2023-05-01T07:43:02.271Z,13.64
2023-05-01T07:45:31.379Z,13.66
2023-05-01T07:47:58.984Z,13.74
2023-05-01T07:50:26.931Z,13.81
2023-05-01T07:52:54.862Z,13.87
2023-05-01T07:55:23.649Z,13.97
2023-05-01T07:57:51.338Z,13.96
2023-05-01T08:00:20.112Z,13.96
2023-05-01T08:02:48.384Z,14.04
2023-05-01T08:05:16.227Z,14.20
2023-05-01T08:07:44.018Z,14.34
2023-05-01T08:10:11.652Z,14.53
2023-05-01T08:12:39.536Z,14.65
2023-05-01T08:15:52.560Z,14.76
2023-05-01T08:18:21.199Z,14.84
2023-05-01T08:20:50.497Z,14.89
2023-05-01T08:23:18.699Z,14.98
2023-05-01T08:25:51.701Z,15.02
2023-05-01T08:28:22.910Z,15.08
2023-05-01T08:30:51.010Z,15.12
2023-05-01T08:33:19.405Z,15.14
2023-05-01T08:35:46.986Z,15.27
2023-05-01T08:38:14.776Z,15.49
2023-05-01T08:40:51.067Z,15.68
2023-05-01T08:43:19.206Z,15.79
2023-05-01T08:45:49.417Z,15.85
2023-05-01T08:48:20.661Z,15.98
2023-05-01T08:50:49.805Z,16.17
2023-05-01T08:53:20.201Z,16.49
2023-05-01T08:55:50.651Z,16.79
2023-05-01T08:58:21.918Z,17.05
2023-05-01T09:00:50.311Z,17.32
2023-05-01T09:03:20.380Z,17.61
2023-05-01T09:05:48.904Z,17.86
2023-05-01T09:08:16.716Z,18.05
2023-05-01T09:10:48.828Z,18.21
2023-05-01T09:13:16.546Z,18.26
2023-05-01T09:15:44.600Z,18.31
2023-05-01T09:18:13.056Z,18.40
2023-05-01T09:20:41.779Z,18.43
2023-05-01T09:23:10.113Z,18.31
2023-05-01T09:25:38.646Z,18.24
2023-05-01T09:28:07.574Z,18.25
2023-05-01T09:30:39.394Z,18.27
2023-05-01T09:33:15.535Z,18.34
2023-05-01T09:35:50.000Z,18.43
2023-05-01T09:38:23.900Z,18.47
2023-05-01T09:40:56.513Z,18.50
2023-05-01T09:43:29.547Z,18.54
2023-05-01T09:46:09.957Z,18.57
2023-05-01T09:48:38.894Z,18.61
2023-05-01T09:51:31.036Z,18.84
2023-05-01T09:54:01.846Z,18.99
2023-05-01T09:56:32.286Z,19.13
2023-05-01T09:59:18.124Z,19.33
2023-05-01T10:01:49.354Z,19.29
2023-05-01T10:04:17.369Z,19.30
2023-05-01T10:06:45.278Z,19.28
2023-05-01T10:09:29.257Z,19.34
2023-05-01T10:11:57.866Z,19.41
2023-05-01T10:14:27.062Z,19.55
2023-05-01T10:16:57.970Z,19.66
2023-05-01T10:19:26.082Z,19.75
2023-05-01T10:21:53.807Z,19.81
2023-05-01T10:24:22.270Z,19.93
2023-05-01T10:26:52.456Z,20.05
2023-05-01T10:29:23.909Z,20.17
2023-05-01T10:31:51.637Z,20.27
2023-05-01T10:34:24.197Z,20.33
2023-05-01T10:37:07.185Z,20.33
2023-05-01T10:39:36.853Z,20.33
2023-05-01T10:42:11.213Z,20.40
2023-05-01T10:44:39.083Z,20.41
2023-05-01T10:47:31.644Z,20.44
2023-05-01T10:50:15.846Z,20.62
2023-05-01T10:53:15.589Z,20.94
2023-05-01T10:55:49.427Z,21.08
2023-05-01T10:58:37.154Z,21.22
2023-05-01T11:01:31.372Z,21.22
2023-05-01T11:04:24.798Z,21.23
2023-05-01T11:07:08.528Z,21.37
2023-05-01T11:09:44.356Z,21.58
2023-05-01T11:12:16.742Z,21.93
2023-05-01T11:15:09.620Z,22.30
2023-05-01T11:17:46.058Z,22.47
2023-05-01T11:20:25.998Z,22.46
2023-05-01T11:22:56.472Z,22.32
2023-05-01T11:25:27.757Z,22.25
2023-05-01T11:27:59.868Z,22.26
2023-05-01T11:30:37.797Z,22.24
2023-05-01T11:33:09.128Z,22.21
2023-05-01T11:35:39.079Z,22.29
2023-05-01T11:38:18.633Z,22.26
2023-05-01T11:40:55.479Z,22.13
2023-05-01T11:43:23.531Z,21.96
2023-05-01T11:45:55.011Z,21.79
2023-05-01T11:48:22.836Z,21.70
2023-05-01T11:50:50.874Z,21.65
2023-05-01T11:53:18.639Z,21.59
2023-05-01T11:55:46.674Z,21.53
2023-05-01T11:58:15.233Z,21.43
2023-05-01T12:00:43.969Z,21.28
2023-05-01T12:03:15.500Z,21.09
2023-05-01T12:05:45.492Z,20.96
2023-05-01T12:08:18.793Z,21.03
2023-05-01T12:10:53.621Z,21.21
2023-05-01T12:13:22.106Z,21.23
2023-05-01T12:15:55.248Z,21.21
2023-05-01T12:18:23.425Z,21.04
2023-05-01T12:20:54.300Z,20.77
2023-05-01T12:23:37.361Z,20.71
2023-05-01T12:26:28.226Z,20.86
2023-05-01T12:28:58.936Z,20.95
2023-05-01T12:31:28.586Z,20.85
2023-05-01T12:34:01.994Z,20.83
2023-05-01T12:36:32.467Z,20.82
2023-05-01T12:39:12.883Z,20.74
2023-05-01T12:41:49.049Z,20.57
2023-05-01T12:44:23.867Z,20.57
2023-05-01T12:47:04.458Z,20.69
2023-05-01T12:49:33.287Z,20.73
2023-05-01T12:52:01.793Z,20.75
2023-05-01T12:54:34.593Z,20.75
2023-05-01T12:57:08.071Z,20.70
2023-05-01T12:59:41.025Z,20.67
2023-05-01T13:02:16.065Z,20.57
2023-05-01T13:04:45.192Z,20.52
2023-05-01T13:07:15.799Z,20.50
2023-05-01T13:09:57.794Z,20.54
2023-05-01T13:12:27.634Z,20.59
2023-05-01T13:14:56.331Z,20.63
2023-05-01T13:17:31.249Z,20.61
2023-05-01T13:20:04.912Z,20.59
2023-05-01T13:22:39.005Z,20.63
2023-05-01T13:25:20.647Z,20.73
2023-05-01T13:27:53.707Z,20.76
2023-05-01T13:30:32.993Z,20.80
2023-05-01T13:33:02.125Z,20.82
2023-05-01T13:35:32.178Z,20.83
2023-05-01T13:38:04.121Z,20.88
2023-05-01T13:40:34.400Z,20.93
2023-05-01T13:43:03.099Z,20.98
2023-05-01T13:45:30.751Z,21.02
2023-05-01T13:47:58.717Z,21.05
2023-05-01T13:50:27.576Z,21.09
2023-05-01T13:52:55.206Z,21.12
2023-05-01T13:55:24.183Z,21.09
2023-05-01T13:57:51.885Z,21.05
2023-05-01T14:00:20.679Z,21.00
2023-05-01T14:02:49.716Z,20.97
2023-05-01T14:05:28.928Z,20.93
2023-05-01T14:07:58.520Z,21.04
2023-05-01T14:10:28.886Z,21.06
2023-05-01T14:13:01.036Z,21.01
2023-05-01T14:15:29.454Z,21.04
2023-05-01T14:17:58.234Z,21.04
2023-05-01T14:20:26.001Z,20.94
2023-05-01T14:22:53.780Z,20.85
2023-05-01T14:25:31.355Z,20.92
2023-05-01T14:28:01.946Z,20.94
2023-05-01T14:30:37.182Z,20.96
2023-05-01T14:33:11.492Z,20.88
2023-05-01T14:35:52.060Z,20.77
2023-05-01T14:38:22.618Z,20.63
2023-05-01T14:40:50.393Z,20.45
2023-05-01T14:43:21.847Z,20.23
2023-05-01T14:45:50.189Z,20.00
2023-05-01T14:48:24.063Z,19.78
2023-05-01T14:50:52.906Z,19.56
2023-05-01T14:53:21.461Z,19.36
2023-05-01T14:55:51.768Z,19.17
2023-05-01T14:58:19.440Z,19.02
2023-05-01T15:00:47.233Z,18.89
2023-05-01T15:03:15.011Z,18.77
2023-05-01T15:05:44.408Z,18.63
2023-05-01T15:08:12.217Z,18.49
2023-05-01T15:10:39.876Z,18.35
2023-05-01T15:13:07.722Z,18.24
2023-05-01T15:15:35.297Z,18.17
2023-05-01T15:18:04.067Z,18.14
2023-05-01T15:20:31.942Z,18.07
2023-05-01T15:22:59.504Z,17.98
2023-05-01T15:25:27.161Z,17.84
2023-05-01T15:27:55.840Z,17.75
2023-05-01T15:30:23.474Z,17.68
2023-05-01T15:32:51.678Z,17.62
2023-05-01T15:35:21.416Z,17.58
2023-05-01T15:37:49.337Z,17.54
2023-05-01T15:40:16.976Z,17.53
2023-05-01T15:42:47.936Z,17.51
2023-05-01T15:45:15.565Z,17.45
2023-05-01T15:47:43.219Z,17.39
2023-05-01T15:50:14.668Z,17.32
2023-05-01T15:52:42.246Z,17.24
2023-05-01T15:55:10.052Z,17.20
2023-05-01T15:57:37.766Z,17.13
2023-05-01T16:00:06.587Z,17.06
2023-05-01T16:02:34.355Z,16.99
2023-05-01T16:05:02.098Z,16.93
2023-05-01T16:07:29.890Z,16.90
2023-05-01T16:09:58.424Z,16.87
2023-05-01T16:12:30.132Z,16.87
2023-05-01T16:14:57.960Z,16.97
2023-05-01T16:17:25.608Z,17.11
2023-05-01T16:19:55.124Z,17.35
2023-05-01T16:22:22.726Z,17.63
2023-05-01T16:24:50.490Z,17.94
2023-05-01T16:27:18.515Z,18.23
2023-05-01T16:29:46.223Z,18.43
2023-05-01T16:32:17.005Z,18.61
2023-05-01T16:34:44.856Z,18.70
2023-05-01T16:37:15.118Z,18.74
2023-05-01T16:39:43.205Z,18.73
2023-05-01T16:42:14.440Z,18.78
2023-05-01T16:44:42.206Z,18.81
2023-05-01T16:47:12.820Z,18.77
2023-05-01T16:49:46.455Z,18.66
2023-05-01T16:52:16.310Z,18.52
2023-05-01T16:54:43.905Z,18.49
2023-05-01T16:57:11.556Z,18.43
2023-05-01T16:59:39.239Z,18.39
2023-05-01T17:02:07.149Z,18.30
2023-05-01T17:04:34.942Z,18.18
2023-05-01T17:07:02.728Z,17.99
2023-05-01T17:09:31.116Z,17.82
2023-05-01T17:11:59.202Z,17.73
2023-05-01T17:14:29.067Z,17.72
2023-05-01T17:17:00.042Z,17.75
2023-05-01T17:19:28.890Z,17.75
2023-05-01T17:21:58.167Z,17.75
2023-05-01T17:24:27.061Z,17.76
2023-05-01T17:26:55.512Z,17.80
2023-05-01T17:29:24.149Z,17.86
2023-05-01T17:31:51.834Z,17.86
2023-05-01T17:34:19.649Z,17.82
2023-05-01T17:36:47.597Z,17.78
2023-05-01T17:39:15.182Z,17.73
2023-05-01T17:41:43.012Z,17.70
2023-05-01T17:44:10.653Z,17.70
2023-05-01T17:46:38.974Z,17.68
2023-05-01T17:49:07.389Z,17.62
2023-05-01T17:51:35.134Z,17.58
2023-05-01T17:54:02.723Z,17.52
2023-05-01T17:56:30.243Z,17.42
2023-05-01T17:58:57.813Z,17.33
2023-05-01T18:01:25.558Z,17.24
2023-05-01T18:03:54.115Z,17.16
2023-05-01T18:06:22.017Z,17.05
2023-05-01T18:08:50.235Z,16.96
2023-05-01T18:11:17.883Z,16.85
2023-05-01T18:13:48.002Z,16.75
2023-05-01T18:16:16.060Z,16.61
2023-05-01T18:18:43.989Z,16.50
2023-05-01T18:21:11.592Z,16.40
2023-05-01T18:23:39.804Z,16.31
2023-05-01T18:26:08.128Z,16.20
2023-05-01T18:28:35.738Z,16.09
2023-05-01T18:31:03.904Z,15.99
2023-05-01T18:33:31.704Z,15.92
2023-05-01T18:35:59.938Z,15.83
2023-05-01T18:38:28.500Z,15.75
2023-05-01T18:40:56.302Z,15.64
2023-05-01T18:43:23.927Z,15.55
2023-05-01T18:45:51.538Z,15.47
2023-05-01T18:48:19.509Z,15.38
2023-05-01T18:50:54.283Z,15.31
2023-05-01T18:53:28.685Z,15.16
2023-05-01T18:56:03.325Z,15.07
2023-05-01T18:58:33.152Z,15.01
2023-05-01T19:01:00.870Z,14.96
2023-05-01T19:03:28.470Z,14.89
2023-05-01T19:05:56.112Z,14.83
2023-05-01T19:08:23.985Z,14.76
2023-05-01T19:10:52.791Z,14.70
2023-05-01T19:13:20.681Z,14.64
2023-05-01T19:15:48.328Z,14.59
2023-05-01T19:18:16.856Z,14.53
2023-05-01T19:20:46.936Z,14.47
2023-05-01T19:23:14.561Z,14.40
2023-05-01T19:25:42.130Z,14.34
2023-05-01T19:28:09.816Z,14.28
2023-05-01T19:30:37.501Z,14.23
2023-05-01T19:33:05.155Z,14.17
2023-05-01T19:35:32.944Z,14.12
2023-05-01T19:38:00.602Z,14.07
2023-05-01T19:40:28.775Z,14.02
2023-05-01T19:42:56.554Z,13.98
2023-05-01T19:45:30.868Z,13.93
2023-05-01T19:47:58.604Z,13.86
2023-05-01T19:50:26.329Z,13.82
2023-05-01T19:52:54.071Z,13.75
2023-05-01T19:55:21.598Z,13.68
2023-05-01T19:57:49.126Z,13.63
2023-05-01T20:00:17.026Z,13.58
2023-05-01T20:02:45.266Z,13.52
2023-05-01T20:05:15.650Z,13.46
2023-05-01T20:07:43.376Z,13.42
2023-05-01T20:10:11.254Z,13.36
2023-05-01T20:12:39.058Z,13.30
2023-05-01T20:15:08.680Z,13.24
2023-05-01T20:17:36.357Z,13.19
2023-05-01T20:20:04.330Z,13.14
2023-05-01T20:22:32.031Z,13.10
2023-05-01T20:24:59.592Z,13.07
2023-05-01T20:27:27.463Z,13.03
2023-05-01T20:29:55.113Z,13.00
2023-05-01T20:32:22.766Z,12.95
2023-05-01T20:34:50.400Z,12.88
2023-05-01T20:37:19.250Z,12.83
2023-05-01T20:39:47.060Z,12.79
2023-05-01T20:42:14.764Z,12.73
2023-05-01T20:44:42.278Z,12.69
2023-05-01T20:47:09.929Z,12.62
2023-05-01T20:49:37.440Z,12.56
2023-05-01T20:52:05.378Z,12.52
2023-05-01T20:54:33.068Z,12.46
2023-05-01T20:57:02.612Z,12.41
2023-05-01T20:59:30.724Z,12.36
2023-05-01T21:01:58.393Z,12.32
2023-05-01T21:04:26.079Z,12.29
2023-05-01T21:06:53.808Z,12.26
2023-05-01T21:09:21.466Z,12.22
2023-05-01T21:11:49.184Z,12.18
2023-05-01T21:14:16.667Z,12.14
2023-05-01T21:16:44.191Z,12.09
2023-05-01T21:19:14.635Z,12.05
2023-05-01T21:21:42.299Z,11.98
2023-05-01T21:24:20.820Z,11.94
2023-05-01T21:26:48.990Z,11.88
2023-05-01T21:29:16.599Z,11.86
2023-05-01T21:31:44.229Z,11.84
2023-05-01T21:34:12.519Z,11.81
2023-05-01T21:36:46.951Z,11.79
2023-05-01T21:39:15.576Z,11.73
2023-05-01T21:41:43.148Z,11.68
2023-05-01T21:44:10.922Z,11.63
2023-05-01T21:46:38.722Z,11.60
2023-05-01T21:49:06.552Z,11.55
2023-05-01T21:51:34.137Z,11.50
2023-05-01T21:54:04.208Z,11.45
2023-05-01T21:56:32.720Z,11.39
2023-05-01T21:59:04.811Z,11.35
2023-05-01T22:01:32.618Z,11.29
2023-05-01T22:04:00.266Z,11.28
2023-05-01T22:06:28.253Z,11.25
2023-05-01T22:08:56.267Z,11.24
2023-05-01T22:11:24.401Z,11.24
2023-05-01T22:13:51.947Z,11.23
2023-05-01T22:16:19.846Z,11.23
2023-05-01T22:18:49.780Z,11.18
2023-05-01T22:21:17.496Z,11.15
2023-05-01T22:23:45.496Z,11.14
2023-05-01T22:26:13.261Z,11.13
2023-05-01T22:28:40.931Z,11.11
2023-05-01T22:31:08.418Z,11.07
2023-05-01T22:33:36.779Z,11.06
2023-05-01T22:36:07.330Z,11.05
2023-05-01T22:38:36.188Z,11.02
2023-05-01T22:41:03.951Z,11.03
2023-05-01T22:43:31.459Z,11.03
2023-05-01T22:45:59.649Z,11.04
2023-05-01T22:48:27.347Z,11.05
2023-05-01T22:50:54.846Z,11.08
2023-05-01T22:53:22.389Z,11.12
2023-05-01T22:55:50.026Z,11.14
2023-05-01T22:58:17.563Z,11.17
2023-05-01T23:00:45.098Z,11.20
2023-05-01T23:03:12.791Z,11.21
2023-05-01T23:05:40.445Z,11.22
2023-05-01T23:08:07.965Z,11.23
2023-05-01T23:10:42.245Z,11.27
2023-05-01T23:13:19.845Z,11.30
2023-05-01T23:15:49.587Z,11.30
2023-05-01T23:18:27.623Z,11.33
2023-05-01T23:20:55.573Z,11.33
2023-05-01T23:23:29.696Z,11.32
2023-05-01T23:25:57.703Z,11.32
2023-05-01T23:28:27.015Z,11.34
2023-05-01T23:30:59.043Z,11.34
2023-05-01T23:33:39.035Z,11.36
2023-05-01T23:36:12.449Z,11.36
2023-05-01T23:38:40.524Z,11.37
2023-05-01T23:41:08.456Z,11.38
2023-05-01T23:43:37.949Z,11.40
2023-05-01T23:46:07.521Z,11.41
2023-05-01T23:48:35.412Z,11.42
2023-05-01T23:51:03.909Z,11.42
2023-05-01T23:53:31.590Z,11.42
2023-05-01T23:55:59.262Z,11.42
2023-05-01T23:58:26.795Z,11.43
